createdAt,value
2018-10-18T00:00:53.672Z,57.70
2018-10-18T00:03:21.889Z,59.73
2018-10-18T00:05:50.443Z,52.33
2018-10-18T00:08:18.859Z,56.20
2018-10-18T00:10:47.181Z,53.77
2018-10-18T00:13:15.793Z,54.10
2018-10-18T00:15:44.105Z,57.90
2018-10-18T00:18:12.405Z,57.73
2018-10-18T00:20:40.674Z,65.97
2018-10-18T00:23:09.124Z,62.25
2018-10-18T00:25:37.493Z,66.77
2018-10-18T00:28:07.335Z,56.02
2018-10-18T00:30:35.640Z,76.60
2018-10-18T00:33:03.899Z,60.00
2018-10-18T00:35:34.513Z,79.97
2018-10-18T00:38:02.793Z,59.30
2018-10-18T00:40:31.760Z,80.75
2018-10-18T00:43:00.285Z,80.53
2018-10-18T00:45:28.676Z,73.57
2018-10-18T00:47:57.325Z,76.37
2018-10-18T00:50:26.547Z,77.60
2018-10-18T00:52:56.124Z,77.27
2018-10-18T00:55:24.324Z,82.87
2018-10-18T00:57:52.701Z,73.83
2018-10-18T01:00:21.064Z,71.03
2018-10-18T01:02:49.361Z,74.97
2018-10-18T01:05:17.601Z,84.47
2018-10-18T01:07:49.410Z,77.83
2018-10-18T01:10:17.677Z,74.63
2018-10-18T01:12:47.302Z,78.73
2018-10-18T01:15:19.881Z,75.27
2018-10-18T01:17:50.147Z,78.00
2018-10-18T01:20:18.606Z,76.70
2018-10-18T01:22:46.791Z,75.17
2018-10-18T01:25:19.745Z,70.47
2018-10-18T01:27:48.025Z,77.87
2018-10-18T01:30:16.345Z,72.50
2018-10-18T01:32:44.642Z,73.27
2018-10-18T01:35:12.897Z,82.37
2018-10-18T01:37:41.105Z,74.67
2018-10-18T01:40:09.386Z,74.17
2018-10-18T01:42:37.668Z,76.43
2018-10-18T01:45:05.968Z,75.27
2018-10-18T01:47:34.396Z,76.77
2018-10-18T01:50:02.765Z,72.90
2018-10-18T01:52:31.030Z,77.57
2018-10-18T01:54:59.374Z,78.03
2018-10-18T01:57:27.653Z,75.40
2018-10-18T01:59:55.990Z,76.53
2018-10-18T02:02:25.109Z,76.00
2018-10-18T02:04:53.408Z,71.20
2018-10-18T02:07:21.702Z,75.37
2018-10-18T02:09:50.123Z,69.07
2018-10-18T02:12:18.488Z,73.63
2018-10-18T02:14:46.806Z,71.37
2018-10-18T02:17:15.256Z,69.77
2018-10-18T02:19:43.718Z,71.92
2018-10-18T02:22:12.197Z,78.47
2018-10-18T02:29:40.242Z,70.67
2018-10-18T02:32:08.549Z,74.70
2018-10-18T02:34:37.095Z,72.13
2018-10-18T02:37:06.398Z,72.90
2018-10-18T02:39:34.708Z,67.23
2018-10-18T02:42:03.371Z,74.03
2018-10-18T02:44:31.552Z,69.67
2018-10-18T02:48:29.974Z,70.03
2018-10-18T02:50:58.873Z,71.57
2018-10-18T02:53:27.193Z,66.70
2018-10-18T02:55:55.491Z,67.90
2018-10-18T02:58:24.043Z,65.73
2018-10-18T03:00:52.675Z,70.37
2018-10-18T03:03:21.451Z,68.03
2018-10-18T03:05:50.089Z,70.37
2018-10-18T03:08:20.242Z,68.53
2018-10-18T03:10:48.509Z,69.20
2018-10-18T03:13:16.811Z,64.13
2018-10-18T03:15:44.990Z,63.23
2018-10-18T03:18:13.320Z,67.83
2018-10-18T03:20:41.590Z,65.90
2018-10-18T03:23:09.916Z,64.67
2018-10-18T03:25:38.234Z,64.57
2018-10-18T03:28:06.459Z,61.00
2018-10-18T03:30:34.761Z,67.20
2018-10-18T03:33:03.213Z,60.43
2018-10-18T03:35:31.572Z,61.83
2018-10-18T03:37:59.950Z,58.70
2018-10-18T03:40:28.239Z,61.33
2018-10-18T03:42:56.490Z,58.90
2018-10-18T03:45:24.921Z,62.50
2018-10-18T03:47:53.201Z,63.10
2018-10-18T03:50:21.836Z,57.80
2018-10-18T03:52:50.173Z,60.27
2018-10-18T03:55:18.473Z,62.67
2018-10-18T03:57:46.767Z,59.53
2018-10-18T04:00:15.091Z,60.50
2018-10-18T04:02:43.364Z,61.13
2018-10-18T04:10:05.517Z,61.77
2018-10-18T04:12:33.845Z,60.57
2018-10-18T04:15:02.167Z,62.27
2018-10-18T04:17:30.453Z,61.13
2018-10-18T04:19:58.654Z,60.93
2018-10-18T04:22:27.249Z,61.30
2018-10-18T04:24:55.565Z,58.50
2018-10-18T04:27:23.848Z,55.47
2018-10-18T04:29:52.503Z,54.43
2018-10-18T04:32:20.922Z,57.43
2018-10-18T04:34:49.293Z,60.52
2018-10-18T04:37:17.620Z,56.07
2018-10-18T04:39:45.950Z,63.08
2018-10-18T04:42:14.699Z,59.20
2018-10-18T04:44:43.093Z,54.60
2018-10-18T04:47:11.841Z,55.30
2018-10-18T04:49:40.027Z,57.53
2018-10-18T04:52:08.354Z,52.87
2018-10-18T04:54:36.725Z,63.43
2018-10-18T04:57:05.496Z,56.90
2018-10-18T04:59:33.823Z,66.50
2018-10-18T05:02:03.263Z,60.43
2018-10-18T05:04:31.691Z,59.53
2018-10-18T05:07:00.039Z,60.40
2018-10-18T05:09:28.250Z,57.40
2018-10-18T05:11:56.639Z,58.83
2018-10-18T05:14:25.153Z,58.10
2018-10-18T05:16:53.506Z,58.63
2018-10-18T05:19:21.997Z,60.33
2018-10-18T05:21:50.300Z,60.30
2018-10-18T05:29:18.610Z,61.03
2018-10-18T05:31:47.042Z,62.67
2018-10-18T05:34:15.234Z,61.37
2018-10-18T05:36:43.545Z,65.23
2018-10-18T05:39:13.148Z,66.47
2018-10-18T05:41:41.538Z,59.40
2018-10-18T05:44:10.081Z,61.50
2018-10-18T05:46:39.759Z,61.97
2018-10-18T05:49:08.070Z,58.97
2018-10-18T05:51:36.433Z,66.60
2018-10-18T05:54:04.983Z,65.10
2018-10-18T05:56:33.514Z,60.47
2018-10-18T05:59:01.797Z,62.73
2018-10-18T06:01:30.042Z,62.57
2018-10-18T06:03:58.361Z,60.90
2018-10-18T06:06:26.733Z,56.50
2018-10-18T06:08:54.996Z,61.70
2018-10-18T06:11:26.133Z,61.40
2018-10-18T06:13:54.452Z,66.17
2018-10-18T06:16:25.758Z,60.73
2018-10-18T06:18:54.226Z,61.30
2018-10-18T06:21:23.197Z,68.40
2018-10-18T06:23:51.530Z,60.80
2018-10-18T06:26:20.437Z,59.13
2018-10-18T06:28:49.337Z,62.43
2018-10-18T06:31:19.301Z,59.45
2018-10-18T06:33:47.813Z,56.27
2018-10-18T06:36:16.262Z,59.87
2018-10-18T06:38:44.651Z,55.87
2018-10-18T06:41:13.902Z,58.50
2018-10-18T06:43:42.600Z,56.63
2018-10-18T06:46:13.645Z,55.10
2018-10-18T06:48:42.606Z,56.57
2018-10-18T06:51:11.217Z,53.63
2018-10-18T06:53:39.950Z,56.50
2018-10-18T06:56:08.236Z,53.17
2018-10-18T06:58:36.626Z,52.63
2018-10-18T07:01:05.152Z,52.07
2018-10-18T07:03:33.454Z,48.03
2018-10-18T07:06:01.917Z,48.98
2018-10-18T07:08:30.234Z,52.27
2018-10-18T07:10:58.598Z,49.27
2018-10-18T07:13:27.677Z,48.57
2018-10-18T07:21:04.663Z,52.17
2018-10-18T07:23:33.107Z,46.43
2018-10-18T07:26:01.427Z,46.57
2018-10-18T07:28:29.677Z,41.93
2018-10-18T07:30:58.019Z,38.93
2018-10-18T07:33:26.302Z,34.13
2018-10-18T07:35:54.845Z,31.80
2018-10-18T07:38:23.177Z,36.33
2018-10-18T07:40:51.577Z,32.60
2018-10-18T07:43:19.978Z,32.60
2018-10-18T07:45:48.436Z,33.50
2018-10-18T07:48:17.652Z,32.07
2018-10-18T07:50:46.054Z,35.67
2018-10-18T07:53:14.551Z,30.00
2018-10-18T07:55:42.819Z,29.57
2018-10-18T07:58:11.199Z,26.23
2018-10-18T08:00:39.900Z,29.70
2018-10-18T08:03:08.275Z,28.93
2018-10-18T08:05:36.573Z,29.53
2018-10-18T08:08:04.963Z,29.53
2018-10-18T08:10:33.504Z,31.53
2018-10-18T08:13:02.038Z,27.10
2018-10-18T08:15:30.592Z,34.47
2018-10-18T08:17:59.165Z,34.23
2018-10-18T08:20:27.503Z,38.17
2018-10-18T08:22:55.877Z,32.77
2018-10-18T08:25:24.228Z,33.80
2018-10-18T08:27:52.528Z,31.93
2018-10-18T08:30:21.004Z,32.60
2018-10-18T08:32:49.353Z,35.37
2018-10-18T08:35:17.859Z,33.43
2018-10-18T08:37:46.231Z,33.50
2018-10-18T08:40:14.397Z,37.00
2018-10-18T08:42:42.810Z,33.97
2018-10-18T08:45:12.077Z,31.60
2018-10-18T08:47:40.556Z,33.00
2018-10-18T08:50:10.590Z,31.67
2018-10-18T08:52:39.215Z,29.52
2018-10-18T08:55:09.695Z,31.40
2018-10-18T08:57:38.082Z,27.87
2018-10-18T09:00:07.507Z,30.83
2018-10-18T09:02:35.968Z,31.63
2018-10-18T09:05:04.454Z,28.40
2018-10-18T09:07:33.041Z,31.70
2018-10-18T09:10:01.431Z,30.87
2018-10-18T09:12:30.138Z,29.93
2018-10-18T09:14:58.537Z,31.70
2018-10-18T09:17:26.944Z,36.50
2018-10-18T09:19:55.467Z,32.58
2018-10-18T09:22:24.017Z,33.17
2018-10-18T09:24:52.525Z,33.13
2018-10-18T09:27:20.936Z,27.53
2018-10-18T09:29:49.306Z,31.47
2018-10-18T09:32:17.748Z,34.27
2018-10-18T09:34:46.084Z,29.87
2018-10-18T09:37:14.489Z,24.90
2018-10-18T09:39:42.885Z,28.23
2018-10-18T09:42:11.191Z,24.87
2018-10-18T09:44:39.637Z,18.17
2018-10-18T09:47:11.706Z,20.40
2018-10-18T09:49:42.629Z,22.33
2018-10-18T09:52:12.291Z,17.43
2018-10-18T09:54:41.114Z,15.53
2018-10-18T09:57:09.687Z,16.80
2018-10-18T09:59:37.986Z,15.03
2018-10-18T10:02:11.644Z,15.65
2018-10-18T10:04:40.279Z,15.40
2018-10-18T10:07:08.601Z,15.55
2018-10-18T10:09:38.627Z,18.60
2018-10-18T10:12:06.937Z,18.50
2018-10-18T10:19:45.086Z,17.40
2018-10-18T10:22:13.399Z,16.03
2018-10-18T10:24:46.192Z,19.80
2018-10-18T10:27:14.517Z,17.83
2018-10-18T10:34:49.724Z,15.20
2018-10-18T10:37:18.257Z,13.80
2018-10-18T10:39:46.498Z,15.23
2018-10-18T10:42:14.893Z,15.53
2018-10-18T10:44:43.147Z,12.73
2018-10-18T10:47:11.550Z,14.83
2018-10-18T10:49:40.042Z,15.60
2018-10-18T10:52:08.432Z,11.37
2018-10-18T10:54:36.648Z,13.93
2018-10-18T10:57:05.295Z,13.53
2018-10-18T10:59:33.705Z,13.83
2018-10-18T11:02:02.074Z,10.23
2018-10-18T11:04:30.558Z,11.77
2018-10-18T11:06:58.867Z,10.13
2018-10-18T11:09:27.168Z,11.85
2018-10-18T11:11:55.512Z,12.50
2018-10-18T11:14:25.078Z,10.07
2018-10-18T11:16:54.594Z,9.70
2018-10-18T11:19:22.937Z,7.87
2018-10-18T11:21:51.243Z,8.73
2018-10-18T11:24:19.783Z,7.70
2018-10-18T11:26:48.107Z,6.10
2018-10-18T11:29:16.465Z,8.03
2018-10-18T11:31:44.773Z,8.97
2018-10-18T11:34:13.133Z,6.90
2018-10-18T11:36:42.376Z,5.47
2018-10-18T11:39:11.053Z,4.97
2018-10-18T11:41:39.426Z,4.70
2018-10-18T11:44:07.958Z,4.33
2018-10-18T11:46:36.249Z,6.63
2018-10-18T11:49:04.629Z,6.47
2018-10-18T11:51:32.980Z,4.40
2018-10-18T11:54:01.241Z,5.33
2018-10-18T11:56:29.505Z,5.30
2018-10-18T11:58:57.939Z,5.47
2018-10-18T12:01:26.666Z,5.07
2018-10-18T12:03:55.604Z,5.80
2018-10-18T12:06:23.986Z,6.08
2018-10-18T12:08:52.289Z,4.93
2018-10-18T12:11:20.700Z,5.57
2018-10-18T12:13:49.108Z,6.73
2018-10-18T12:16:18.265Z,6.97
2018-10-18T12:18:46.515Z,5.73
2018-10-18T12:21:15.790Z,3.30
2018-10-18T12:23:44.097Z,3.87
2018-10-18T12:26:12.662Z,4.37
2018-10-18T12:28:40.930Z,5.97
2018-10-18T12:31:09.220Z,4.23
2018-10-18T12:33:37.509Z,3.67
2018-10-18T12:36:05.958Z,4.77
2018-10-18T12:38:34.396Z,5.90
2018-10-18T12:41:02.895Z,3.43
2018-10-18T12:43:31.217Z,3.63
2018-10-18T12:45:59.525Z,5.72
2018-10-18T12:48:27.791Z,3.60
2018-10-18T12:50:56.045Z,3.43
2018-10-18T12:53:24.379Z,5.20
2018-10-18T12:55:54.230Z,5.90
2018-10-18T12:58:22.569Z,3.57
2018-10-18T13:00:51.038Z,6.43
2018-10-18T13:03:19.730Z,4.83
2018-10-18T13:05:48.061Z,3.60
2018-10-18T13:08:16.502Z,5.95
2018-10-18T13:10:44.686Z,8.93
2018-10-18T13:13:13.189Z,10.03
2018-10-18T13:15:41.434Z,12.67
2018-10-18T13:18:09.775Z,13.53
2018-10-18T13:20:37.963Z,11.40
2018-10-18T13:23:06.210Z,10.53
2018-10-18T13:25:34.432Z,13.57
2018-10-18T13:28:02.742Z,10.17
2018-10-18T13:30:31.385Z,13.70
2018-10-18T13:32:59.980Z,17.23
2018-10-18T13:35:29.556Z,10.10
2018-10-18T13:37:58.155Z,13.20
2018-10-18T13:40:26.920Z,10.47
2018-10-18T13:42:55.205Z,9.83
2018-10-18T13:45:23.645Z,6.77
2018-10-18T13:47:52.268Z,9.33
2018-10-18T13:50:20.780Z,5.77
2018-10-18T13:52:49.093Z,5.37
2018-10-18T13:55:17.386Z,3.97
2018-10-18T13:57:45.708Z,3.83
2018-10-18T14:00:20.508Z,2.33
2018-10-18T14:02:49.022Z,5.23
2018-10-18T14:05:17.423Z,5.07
2018-10-18T14:07:45.659Z,4.53
2018-10-18T14:10:13.927Z,4.85
2018-10-18T14:12:42.277Z,3.03
2018-10-18T14:15:10.493Z,5.57
2018-10-18T14:17:39.200Z,2.77
2018-10-18T14:20:08.820Z,6.23
2018-10-18T14:22:37.268Z,2.60
2018-10-18T14:25:05.766Z,3.53
2018-10-18T14:27:34.077Z,5.10
2018-10-18T14:30:02.807Z,2.17
2018-10-18T14:33:34.109Z,5.95
2018-10-18T14:36:02.404Z,2.93
2018-10-18T14:38:30.809Z,2.37
2018-10-18T14:40:59.025Z,2.83
2018-10-18T14:48:20.381Z,2.67
2018-10-18T14:50:48.845Z,3.33
2018-10-18T14:53:17.541Z,3.67
2018-10-18T14:55:46.202Z,3.33
2018-10-18T14:58:14.876Z,3.20
2018-10-18T15:00:43.475Z,2.93
2018-10-18T15:03:11.832Z,5.27
2018-10-18T15:05:40.709Z,4.67
2018-10-18T15:08:09.357Z,3.63
2018-10-18T15:10:37.649Z,4.53
2018-10-18T15:13:06.436Z,5.23
2018-10-18T15:15:34.956Z,6.23
2018-10-18T15:18:03.612Z,5.67
2018-10-18T15:20:32.255Z,8.77
2018-10-18T15:23:00.826Z,5.90
2018-10-18T15:25:29.857Z,7.50
2018-10-18T15:27:58.748Z,6.77
2018-10-18T15:30:27.223Z,5.03
2018-10-18T15:32:55.732Z,4.23
2018-10-18T15:35:24.164Z,5.63
2018-10-18T15:37:52.829Z,4.47
2018-10-18T15:40:21.354Z,6.33
2018-10-18T15:42:49.945Z,6.07
2018-10-18T15:45:18.520Z,5.00
2018-10-18T15:47:46.927Z,5.17
2018-10-18T15:50:15.420Z,4.30
2018-10-18T15:52:43.839Z,4.60
2018-10-18T15:55:12.328Z,3.77
2018-10-18T15:57:45.941Z,4.10
2018-10-18T16:00:14.515Z,3.77
2018-10-18T16:02:43.080Z,4.63
2018-10-18T16:05:11.876Z,5.53
2018-10-18T16:07:42.363Z,5.80
2018-10-18T16:10:10.886Z,6.40
2018-10-18T16:17:32.057Z,6.93
2018-10-18T16:20:00.253Z,8.50
2018-10-18T16:22:28.514Z,5.50
2018-10-18T16:24:56.874Z,4.23
2018-10-18T16:27:25.161Z,4.60
2018-10-18T16:29:54.559Z,4.37
2018-10-18T16:32:23.102Z,6.70
2018-10-18T16:34:51.313Z,6.83
2018-10-18T16:37:19.685Z,5.47
2018-10-18T16:39:47.981Z,6.13
2018-10-18T16:42:16.241Z,8.60
2018-10-18T16:44:44.433Z,8.90
2018-10-18T16:47:12.798Z,9.97
2018-10-18T16:49:41.121Z,7.93
2018-10-18T16:52:09.645Z,9.17
2018-10-18T16:54:38.556Z,10.77
2018-10-18T16:57:07.100Z,7.97
2018-10-18T16:59:35.392Z,8.98
2018-10-18T17:02:04.024Z,8.07
2018-10-18T17:04:32.439Z,8.23
2018-10-18T17:07:01.033Z,8.90
2018-10-18T17:09:29.415Z,8.48
2018-10-18T17:11:58.033Z,8.47
2018-10-18T17:14:27.261Z,10.43
2018-10-18T17:16:55.657Z,9.90
2018-10-18T17:19:24.952Z,8.73
2018-10-18T17:21:53.532Z,7.77
2018-10-18T17:24:21.964Z,7.60
2018-10-18T17:26:50.634Z,7.70
2018-10-18T17:29:19.090Z,7.23
2018-10-18T17:31:47.455Z,7.37
2018-10-18T17:34:16.155Z,9.77
2018-10-18T17:36:46.185Z,9.27
2018-10-18T17:39:14.825Z,6.60
2018-10-18T17:41:43.522Z,8.60
2018-10-18T17:44:11.974Z,8.67
2018-10-18T17:46:40.322Z,8.67
2018-10-18T17:49:08.898Z,7.37
2018-10-18T17:51:37.241Z,7.40
2018-10-18T17:54:05.995Z,10.40
2018-10-18T17:56:34.476Z,12.37
2018-10-18T18:04:02.440Z,8.73
2018-10-18T18:06:31.076Z,9.60
2018-10-18T18:11:27.807Z,9.00
2018-10-18T18:13:56.502Z,9.73
2018-10-18T18:16:24.852Z,9.57
2018-10-18T18:18:53.238Z,11.70
2018-10-18T18:21:22.683Z,10.50
2018-10-18T18:23:51.153Z,12.27
2018-10-18T18:26:19.796Z,11.40
2018-10-18T18:28:49.461Z,13.23
2018-10-18T18:31:18.294Z,12.47
2018-10-18T18:33:46.797Z,9.95
2018-10-18T18:36:15.224Z,14.20
2018-10-18T18:38:43.679Z,12.67
2018-10-18T18:41:12.122Z,14.87
2018-10-18T18:43:40.398Z,14.07
2018-10-18T18:46:08.742Z,13.63
2018-10-18T18:48:37.222Z,15.67
2018-10-18T18:51:05.898Z,17.65
2018-10-18T18:53:34.425Z,17.57
2018-10-18T18:56:02.953Z,14.03
2018-10-18T18:58:31.721Z,19.47
2018-10-18T19:01:00.944Z,13.87
2018-10-18T19:03:29.420Z,15.73
2018-10-18T19:05:57.868Z,18.20
2018-10-18T19:08:26.392Z,16.00
2018-10-18T19:10:54.870Z,18.43
2018-10-18T19:13:23.515Z,17.10
2018-10-18T19:15:52.037Z,18.47
2018-10-18T19:18:20.798Z,15.93
2018-10-18T19:20:49.325Z,16.93
2018-10-18T19:23:17.743Z,14.63
2018-10-18T19:25:46.137Z,17.77
2018-10-18T19:28:14.763Z,14.60
2018-10-18T19:30:43.365Z,17.97
2018-10-18T19:33:12.034Z,14.80
2018-10-18T19:35:40.733Z,13.70
2018-10-18T19:38:09.338Z,17.93
2018-10-18T19:40:37.969Z,11.67
2018-10-18T19:43:06.423Z,18.10
2018-10-18T19:45:34.791Z,15.30
2018-10-18T19:48:03.346Z,15.30
2018-10-18T19:50:31.873Z,17.47
2018-10-18T19:53:00.512Z,18.80
2018-10-18T19:55:29.022Z,17.93
2018-10-18T19:57:57.486Z,17.57
2018-10-18T20:00:26.786Z,18.43
2018-10-18T20:02:55.409Z,18.90
2018-10-18T20:05:23.879Z,18.60
2018-10-18T20:07:52.541Z,16.20
2018-10-18T20:10:20.979Z,16.57
2018-10-18T20:12:49.283Z,20.70
2018-10-18T20:15:17.864Z,17.23
2018-10-18T20:17:46.178Z,15.87
2018-10-18T20:20:14.577Z,18.27
2018-10-18T20:22:42.866Z,15.70
2018-10-18T20:25:11.177Z,17.55
2018-10-18T20:27:39.536Z,18.40
2018-10-18T20:30:12.533Z,15.80
2018-10-18T20:32:41.240Z,16.77
2018-10-18T20:35:09.990Z,14.50
2018-10-18T20:37:38.714Z,16.77
2018-10-18T20:40:09.529Z,15.93
2018-10-18T20:42:37.857Z,15.27
2018-10-18T20:45:07.032Z,13.90
2018-10-18T20:47:35.474Z,18.17
2018-10-18T20:50:03.835Z,16.70
2018-10-18T20:52:32.345Z,17.07
2018-10-18T20:55:00.577Z,15.70
2018-10-18T20:57:28.826Z,15.07
2018-10-18T20:59:57.252Z,16.97
2018-10-18T21:02:25.586Z,17.53
2018-10-18T21:04:53.911Z,15.07
2018-10-18T21:07:22.221Z,15.77
2018-10-18T21:09:50.517Z,16.23
2018-10-18T21:12:18.823Z,14.47
2018-10-18T21:14:48.197Z,14.33
2018-10-18T21:17:16.461Z,13.60
2018-10-18T21:19:46.227Z,18.50
2018-10-18T21:22:14.494Z,14.13
2018-10-18T21:24:42.725Z,16.37
2018-10-18T21:27:11.143Z,15.03
2018-10-18T21:29:45.898Z,14.93
2018-10-18T21:32:14.198Z,16.33
2018-10-18T21:34:42.591Z,17.90
2018-10-18T21:37:10.833Z,13.35
2018-10-18T21:39:39.170Z,12.60
2018-10-18T21:47:01.500Z,17.57
2018-10-18T21:49:30.479Z,15.80
2018-10-18T21:51:58.875Z,14.40
2018-10-18T21:54:27.651Z,16.17
2018-10-18T21:56:56.489Z,14.63
2018-10-18T21:59:25.108Z,13.77
2018-10-18T22:01:53.469Z,19.03
2018-10-18T22:04:21.833Z,13.53
2018-10-18T22:06:50.391Z,14.00
2018-10-18T22:09:19.076Z,13.60
2018-10-18T22:11:47.788Z,12.88
2018-10-18T22:14:16.395Z,12.30
2018-10-18T22:16:45.014Z,13.07
2018-10-18T22:19:13.417Z,10.90
2018-10-18T22:26:35.678Z,15.53
2018-10-18T22:29:04.051Z,11.47
2018-10-18T22:31:32.193Z,12.37
2018-10-18T22:34:00.496Z,14.85
2018-10-18T22:36:28.929Z,13.97
2018-10-18T22:38:57.831Z,13.22
2018-10-18T22:41:26.126Z,13.50
2018-10-18T22:43:54.469Z,11.48
2018-10-18T22:46:22.788Z,14.07
2018-10-18T22:48:51.037Z,13.20
2018-10-18T22:51:19.331Z,14.53
2018-10-18T22:53:47.763Z,16.53
2018-10-18T22:56:16.030Z,13.70
2018-10-18T22:58:44.272Z,13.95
2018-10-18T23:01:12.539Z,13.73
2018-10-18T23:03:40.926Z,15.33
2018-10-18T23:06:09.224Z,15.60
2018-10-18T23:08:37.411Z,12.73
2018-10-18T23:11:05.987Z,12.87
2018-10-18T23:13:34.285Z,10.48
2018-10-18T23:16:02.578Z,13.00
2018-10-18T23:23:29.750Z,11.17
2018-10-18T23:25:57.995Z,12.00
2018-10-18T23:28:26.304Z,11.83
2018-10-18T23:30:54.499Z,9.93
2018-10-18T23:33:22.770Z,15.43
2018-10-18T23:35:51.136Z,12.27
2018-10-18T23:38:19.622Z,12.73
2018-10-18T23:40:48.327Z,9.57
2018-10-18T23:43:16.582Z,10.40
2018-10-18T23:45:45.077Z,10.27
2018-10-18T23:48:13.461Z,11.30
2018-10-18T23:50:41.781Z,11.50
2018-10-18T23:53:10.103Z,13.07
2018-10-18T23:55:38.321Z,10.83
2018-10-18T23:58:06.605Z,12.10
